sensor_id;sensor_type;location;lat;lon;timestamp;P1;durP1;ratioP1;P2;durP2;ratioP2
2546;SDS011;1283;47.982;7.834;2023-04-24T00:00:56;1.77;;;0.50;;
2546;SDS011;1283;47.982;7.834;2023-04-24T00:03:24;1.15;;;0.50;;
2546;SDS011;1283;47.982;7.834;2023-04-24T00:05:52;0.73;;;0.47;;
2546;SDS011;1283;47.982;7.834;2023-04-24T00:08:18;1.88;;;0.60;;
2546;SDS011;1283;47.982;7.834;2023-04-24T00:10:45;1.00;;;0.50;;
2546;SDS011;1283;47.982;7.834;2023-04-24T00:13:11;0.88;;;0.50;;
2546;SDS011;1283;47.982;7.834;2023-04-24T00:15:38;1.42;;;0.50;;
2546;SDS011;1283;47.982;7.834;2023-04-24T00:18:04;1.20;;;0.50;;
2546;SDS011;1283;47.982;7.834;2023-04-24T00:20:31;2.20;;;0.50;;
2546;SDS011;1283;47.982;7.834;2023-04-24T00:22:59;2.38;;;0.40;;
2546;SDS011;1283;47.982;7.834;2023-04-24T00:25:26;0.73;;;0.57;;
2546;SDS011;1283;47.982;7.834;2023-04-24T00:27:52;1.13;;;0.70;;
2546;SDS011;1283;47.982;7.834;2023-04-24T00:30:19;3.08;;;0.57;;
2546;SDS011;1283;47.982;7.834;2023-04-24T00:32:45;1.35;;;0.50;;
2546;SDS011;1283;47.982;7.834;2023-04-24T00:35:12;2.25;;;0.60;;
2546;SDS011;1283;47.982;7.834;2023-04-24T00:37:39;1.98;;;0.50;;
2546;SDS011;1283;47.982;7.834;2023-04-24T00:40:07;3.45;;;0.50;;
2546;SDS011;1283;47.982;7.834;2023-04-24T00:42:34;1.40;;;0.63;;
2546;SDS011;1283;47.982;7.834;2023-04-24T00:45:01;0.93;;;0.60;;
2546;SDS011;1283;47.982;7.834;2023-04-24T00:47:29;4.53;;;0.60;;
2546;SDS011;1283;47.982;7.834;2023-04-24T00:49:56;1.63;;;0.45;;
2546;SDS011;1283;47.982;7.834;2023-04-24T00:52:22;4.05;;;0.50;;
2546;SDS011;1283;47.982;7.834;2023-04-24T00:54:49;0.60;;;0.40;;
2546;SDS011;1283;47.982;7.834;2023-04-24T00:57:17;2.63;;;0.60;;
2546;SDS011;1283;47.982;7.834;2023-04-24T00:59:43;3.17;;;0.60;;
2546;SDS011;1283;47.982;7.834;2023-04-24T01:02:10;1.17;;;0.40;;
2546;SDS011;1283;47.982;7.834;2023-04-24T01:04:37;1.88;;;0.40;;
2546;SDS011;1283;47.982;7.834;2023-04-24T01:07:03;1.00;;;0.60;;
2546;SDS011;1283;47.982;7.834;2023-04-24T01:09:34;0.88;;;0.60;;
2546;SDS011;1283;47.982;7.834;2023-04-24T01:12:01;1.42;;;0.60;;
2546;SDS011;1283;47.982;7.834;2023-04-24T01:14:30;1.65;;;0.47;;
2546;SDS011;1283;47.982;7.834;2023-04-24T01:16:57;1.98;;;0.45;;
2546;SDS011;1283;47.982;7.834;2023-04-24T01:19:24;2.60;;;0.50;;
2546;SDS011;1283;47.982;7.834;2023-04-24T01:21:50;0.98;;;0.40;;
2546;SDS011;1283;47.982;7.834;2023-04-24T01:24:18;1.67;;;0.75;;
2546;SDS011;1283;47.982;7.834;2023-04-24T01:26:45;3.33;;;0.50;;
2546;SDS011;1283;47.982;7.834;2023-04-24T01:29:12;1.40;;;0.40;;
2546;SDS011;1283;47.982;7.834;2023-04-24T01:31:38;0.77;;;0.40;;
2546;SDS011;1283;47.982;7.834;2023-04-24T01:34:05;2.08;;;0.47;;
2546;SDS011;1283;47.982;7.834;2023-04-24T01:36:33;2.67;;;0.60;;
2546;SDS011;1283;47.982;7.834;2023-04-24T01:39:01;1.20;;;0.70;;
2546;SDS011;1283;47.982;7.834;2023-04-24T01:41:29;1.00;;;0.50;;
2546;SDS011;1283;47.982;7.834;2023-04-24T01:43:56;0.65;;;0.32;;
2546;SDS011;1283;47.982;7.834;2023-04-24T01:46:23;0.80;;;0.40;;
2546;SDS011;1283;47.982;7.834;2023-04-24T01:48:50;2.92;;;0.80;;
2546;SDS011;1283;47.982;7.834;2023-04-24T01:51:17;3.20;;;0.47;;
2546;SDS011;1283;47.982;7.834;2023-04-24T01:53:44;1.98;;;0.77;;
2546;SDS011;1283;47.982;7.834;2023-04-24T01:56:10;3.03;;;0.60;;
2546;SDS011;1283;47.982;7.834;2023-04-24T01:58:38;1.90;;;0.68;;
2546;SDS011;1283;47.982;7.834;2023-04-24T02:01:05;2.80;;;0.70;;
2546;SDS011;1283;47.982;7.834;2023-04-24T02:03:32;3.45;;;0.70;;
2546;SDS011;1283;47.982;7.834;2023-04-24T02:05:58;3.75;;;0.73;;
2546;SDS011;1283;47.982;7.834;2023-04-24T02:08:25;1.00;;;0.55;;
2546;SDS011;1283;47.982;7.834;2023-04-24T02:10:51;1.80;;;0.52;;
2546;SDS011;1283;47.982;7.834;2023-04-24T02:13:18;2.65;;;0.50;;
2546;SDS011;1283;47.982;7.834;2023-04-24T02:15:45;1.70;;;0.93;;
2546;SDS011;1283;47.982;7.834;2023-04-24T02:18:12;1.38;;;0.60;;
2546;SDS011;1283;47.982;7.834;2023-04-24T02:20:38;0.93;;;0.45;;
2546;SDS011;1283;47.982;7.834;2023-04-24T02:23:05;2.63;;;0.57;;
2546;SDS011;1283;47.982;7.834;2023-04-24T02:25:32;2.05;;;0.60;;
2546;SDS011;1283;47.982;7.834;2023-04-24T02:27:59;2.92;;;0.98;;
2546;SDS011;1283;47.982;7.834;2023-04-24T02:30:25;4.22;;;0.60;;
2546;SDS011;1283;47.982;7.834;2023-04-24T02:32:53;1.58;;;0.57;;
2546;SDS011;1283;47.982;7.834;2023-04-24T02:35:20;3.33;;;0.63;;
2546;SDS011;1283;47.982;7.834;2023-04-24T02:37:46;1.77;;;0.50;;
2546;SDS011;1283;47.982;7.834;2023-04-24T02:40:13;2.47;;;0.60;;
2546;SDS011;1283;47.982;7.834;2023-04-24T02:42:39;3.65;;;0.63;;
2546;SDS011;1283;47.982;7.834;2023-04-24T02:45:06;0.93;;;0.40;;
2546;SDS011;1283;47.982;7.834;2023-04-24T02:47:33;2.25;;;0.70;;
2546;SDS011;1283;47.982;7.834;2023-04-24T02:50:01;2.10;;;0.50;;
2546;SDS011;1283;47.982;7.834;2023-04-24T02:52:28;1.27;;;0.60;;
2546;SDS011;1283;47.982;7.834;2023-04-24T02:54:55;2.22;;;0.63;;
2546;SDS011;1283;47.982;7.834;2023-04-24T02:57:21;2.17;;;0.63;;
2546;SDS011;1283;47.982;7.834;2023-04-24T02:59:48;3.35;;;0.65;;
2546;SDS011;1283;47.982;7.834;2023-04-24T03:02:14;1.92;;;0.73;;
2546;SDS011;1283;47.982;7.834;2023-04-24T03:04:40;4.80;;;1.52;;
2546;SDS011;1283;47.982;7.834;2023-04-24T03:07:09;4.28;;;0.65;;
2546;SDS011;1283;47.982;7.834;2023-04-24T03:09:35;3.15;;;0.68;;
2546;SDS011;1283;47.982;7.834;2023-04-24T03:12:02;1.38;;;0.68;;
2546;SDS011;1283;47.982;7.834;2023-04-24T03:14:28;3.50;;;0.90;;
2546;SDS011;1283;47.982;7.834;2023-04-24T03:16:56;5.22;;;1.10;;
2546;SDS011;1283;47.982;7.834;2023-04-24T03:19:22;5.45;;;0.77;;
2546;SDS011;1283;47.982;7.834;2023-04-24T03:21:49;4.20;;;0.80;;
2546;SDS011;1283;47.982;7.834;2023-04-24T03:24:17;0.70;;;0.70;;
2546;SDS011;1283;47.982;7.834;2023-04-24T03:26:43;1.52;;;0.57;;
2546;SDS011;1283;47.982;7.834;2023-04-24T03:29:09;4.85;;;0.70;;
2546;SDS011;1283;47.982;7.834;2023-04-24T03:31:36;2.03;;;0.50;;
2546;SDS011;1283;47.982;7.834;2023-04-24T03:34:02;3.40;;;0.70;;
2546;SDS011;1283;47.982;7.834;2023-04-24T03:36:29;0.60;;;0.43;;
2546;SDS011;1283;47.982;7.834;2023-04-24T03:38:56;3.22;;;0.55;;
2546;SDS011;1283;47.982;7.834;2023-04-24T03:41:23;2.00;;;0.50;;
2546;SDS011;1283;47.982;7.834;2023-04-24T03:43:50;4.03;;;0.65;;
2546;SDS011;1283;47.982;7.834;2023-04-24T03:46:16;1.42;;;0.50;;
2546;SDS011;1283;47.982;7.834;2023-04-24T03:48:43;1.30;;;0.50;;
2546;SDS011;1283;47.982;7.834;2023-04-24T03:51:09;1.63;;;0.70;;
2546;SDS011;1283;47.982;7.834;2023-04-24T03:53:35;2.25;;;0.80;;
2546;SDS011;1283;47.982;7.834;2023-04-24T03:56:02;3.17;;;0.65;;
2546;SDS011;1283;47.982;7.834;2023-04-24T03:58:30;2.17;;;0.80;;
2546;SDS011;1283;47.982;7.834;2023-04-24T04:00:56;1.02;;;0.80;;
2546;SDS011;1283;47.982;7.834;2023-04-24T04:03:23;1.48;;;0.70;;
2546;SDS011;1283;47.982;7.834;2023-04-24T04:05:50;0.98;;;0.60;;
2546;SDS011;1283;47.982;7.834;2023-04-24T04:08:16;6.53;;;0.88;;
2546;SDS011;1283;47.982;7.834;2023-04-24T04:10:43;1.02;;;0.75;;
2546;SDS011;1283;47.982;7.834;2023-04-24T04:13:09;2.13;;;0.80;;
2546;SDS011;1283;47.982;7.834;2023-04-24T04:15:37;4.65;;;1.00;;
2546;SDS011;1283;47.982;7.834;2023-04-24T04:18:04;1.20;;;0.65;;
2546;SDS011;1283;47.982;7.834;2023-04-24T04:20:30;2.78;;;0.90;;
2546;SDS011;1283;47.982;7.834;2023-04-24T04:22:56;1.40;;;0.85;;
2546;SDS011;1283;47.982;7.834;2023-04-24T04:25:23;1.60;;;0.85;;
2546;SDS011;1283;47.982;7.834;2023-04-24T04:27:49;1.55;;;1.05;;
2546;SDS011;1283;47.982;7.834;2023-04-24T04:30:16;6.47;;;1.20;;
2546;SDS011;1283;47.982;7.834;2023-04-24T04:32:44;5.35;;;0.90;;
2546;SDS011;1283;47.982;7.834;2023-04-24T04:35:10;1.60;;;1.20;;
2546;SDS011;1283;47.982;7.834;2023-04-24T04:37:37;2.83;;;0.90;;
2546;SDS011;1283;47.982;7.834;2023-04-24T04:40:05;2.85;;;1.30;;
2546;SDS011;1283;47.982;7.834;2023-04-24T04:42:36;4.50;;;1.10;;
2546;SDS011;1283;47.982;7.834;2023-04-24T04:45:05;2.88;;;0.90;;
2546;SDS011;1283;47.982;7.834;2023-04-24T04:47:33;1.35;;;0.90;;
2546;SDS011;1283;47.982;7.834;2023-04-24T04:50:02;3.83;;;1.05;;
2546;SDS011;1283;47.982;7.834;2023-04-24T04:52:28;1.40;;;1.00;;
2546;SDS011;1283;47.982;7.834;2023-04-24T04:54:55;2.40;;;1.00;;
2546;SDS011;1283;47.982;7.834;2023-04-24T04:57:21;3.65;;;1.00;;
2546;SDS011;1283;47.982;7.834;2023-04-24T04:59:48;3.90;;;0.98;;
2546;SDS011;1283;47.982;7.834;2023-04-24T05:02:14;2.45;;;0.90;;
2546;SDS011;1283;47.982;7.834;2023-04-24T05:04:41;2.00;;;0.93;;
2546;SDS011;1283;47.982;7.834;2023-04-24T05:07:09;3.97;;;1.30;;
2546;SDS011;1283;47.982;7.834;2023-04-24T05:09:35;2.15;;;1.20;;
2546;SDS011;1283;47.982;7.834;2023-04-24T05:12:02;2.53;;;1.00;;
2546;SDS011;1283;47.982;7.834;2023-04-24T05:14:29;2.92;;;1.20;;
2546;SDS011;1283;47.982;7.834;2023-04-24T05:16:55;2.05;;;1.13;;
2546;SDS011;1283;47.982;7.834;2023-04-24T05:19:22;2.08;;;1.27;;
2546;SDS011;1283;47.982;7.834;2023-04-24T05:21:48;3.13;;;1.45;;
2546;SDS011;1283;47.982;7.834;2023-04-24T05:24:16;7.10;;;1.48;;
2546;SDS011;1283;47.982;7.834;2023-04-24T05:26:42;3.03;;;1.50;;
2546;SDS011;1283;47.982;7.834;2023-04-24T05:29:09;1.92;;;1.20;;
2546;SDS011;1283;47.982;7.834;2023-04-24T05:31:35;2.22;;;1.38;;
2546;SDS011;1283;47.982;7.834;2023-04-24T05:34:02;4.45;;;1.63;;
2546;SDS011;1283;47.982;7.834;2023-04-24T05:36:28;5.65;;;1.63;;
2546;SDS011;1283;47.982;7.834;2023-04-24T05:38:55;3.97;;;1.58;;
2546;SDS011;1283;47.982;7.834;2023-04-24T05:41:23;3.92;;;1.40;;
2546;SDS011;1283;47.982;7.834;2023-04-24T05:43:50;2.60;;;1.60;;
2546;SDS011;1283;47.982;7.834;2023-04-24T05:46:16;3.75;;;1.40;;
2546;SDS011;1283;47.982;7.834;2023-04-24T05:48:43;6.38;;;1.90;;
2546;SDS011;1283;47.982;7.834;2023-04-24T05:51:09;3.28;;;1.80;;
2546;SDS011;1283;47.982;7.834;2023-04-24T05:53:36;3.95;;;1.92;;
2546;SDS011;1283;47.982;7.834;2023-04-24T05:56:02;9.50;;;2.05;;
2546;SDS011;1283;47.982;7.834;2023-04-24T05:58:30;5.28;;;2.10;;
2546;SDS011;1283;47.982;7.834;2023-04-24T06:00:56;10.27;;;2.42;;
2546;SDS011;1283;47.982;7.834;2023-04-24T06:03:23;3.67;;;2.28;;
2546;SDS011;1283;47.982;7.834;2023-04-24T06:05:50;3.15;;;1.80;;
2546;SDS011;1283;47.982;7.834;2023-04-24T06:08:16;3.72;;;1.95;;
2546;SDS011;1283;47.982;7.834;2023-04-24T06:10:43;3.97;;;2.10;;
2546;SDS011;1283;47.982;7.834;2023-04-24T06:13:09;4.85;;;1.80;;
2546;SDS011;1283;47.982;7.834;2023-04-24T06:15:37;4.93;;;1.67;;
2546;SDS011;1283;47.982;7.834;2023-04-24T06:18:04;3.47;;;1.90;;
2546;SDS011;1283;47.982;7.834;2023-04-24T06:20:30;2.63;;;1.77;;
2546;SDS011;1283;47.982;7.834;2023-04-24T06:22:56;4.13;;;2.25;;
2546;SDS011;1283;47.982;7.834;2023-04-24T06:25:24;4.90;;;1.95;;
2546;SDS011;1283;47.982;7.834;2023-04-24T06:27:51;4.75;;;2.10;;
2546;SDS011;1283;47.982;7.834;2023-04-24T06:30:17;4.88;;;1.90;;
2546;SDS011;1283;47.982;7.834;2023-04-24T06:32:45;3.83;;;2.40;;
2546;SDS011;1283;47.982;7.834;2023-04-24T06:35:11;4.97;;;2.00;;
2546;SDS011;1283;47.982;7.834;2023-04-24T06:37:38;6.97;;;2.47;;
2546;SDS011;1283;47.982;7.834;2023-04-24T06:40:05;3.42;;;1.85;;
2546;SDS011;1283;47.982;7.834;2023-04-24T06:42:32;3.55;;;1.95;;
2546;SDS011;1283;47.982;7.834;2023-04-24T06:45:00;4.80;;;2.33;;
2546;SDS011;1283;47.982;7.834;2023-04-24T06:47:26;4.65;;;2.13;;
2546;SDS011;1283;47.982;7.834;2023-04-24T06:49:54;3.95;;;2.13;;
2546;SDS011;1283;47.982;7.834;2023-04-24T06:52:20;4.45;;;1.75;;
2546;SDS011;1283;47.982;7.834;2023-04-24T06:54:47;3.60;;;1.75;;
2546;SDS011;1283;47.982;7.834;2023-04-24T06:57:13;5.15;;;1.88;;
2546;SDS011;1283;47.982;7.834;2023-04-24T06:59:41;2.83;;;1.80;;
2546;SDS011;1283;47.982;7.834;2023-04-24T07:02:07;6.80;;;2.13;;
2546;SDS011;1283;47.982;7.834;2023-04-24T07:04:34;7.57;;;2.22;;
2546;SDS011;1283;47.982;7.834;2023-04-24T07:07:01;5.05;;;1.92;;
2546;SDS011;1283;47.982;7.834;2023-04-24T07:09:29;3.05;;;1.90;;
2546;SDS011;1283;47.982;7.834;2023-04-24T07:11:56;3.15;;;1.60;;
2546;SDS011;1283;47.982;7.834;2023-04-24T07:14:23;2.47;;;1.77;;
2546;SDS011;1283;47.982;7.834;2023-04-24T07:16:49;5.10;;;1.88;;
2546;SDS011;1283;47.982;7.834;2023-04-24T07:19:16;3.17;;;1.77;;
2546;SDS011;1283;47.982;7.834;2023-04-24T07:21:42;4.63;;;1.55;;
2546;SDS011;1283;47.982;7.834;2023-04-24T07:24:11;7.57;;;1.88;;
2546;SDS011;1283;47.982;7.834;2023-04-24T07:26:38;2.65;;;1.48;;
2546;SDS011;1283;47.982;7.834;2023-04-24T07:29:05;6.25;;;1.25;;
2546;SDS011;1283;47.982;7.834;2023-04-24T07:31:31;2.30;;;1.40;;
2546;SDS011;1283;47.982;7.834;2023-04-24T07:33:57;3.45;;;1.30;;
2546;SDS011;1283;47.982;7.834;2023-04-24T07:36:24;5.13;;;1.40;;
2546;SDS011;1283;47.982;7.834;2023-04-24T07:38:51;2.45;;;1.25;;
2546;SDS011;1283;47.982;7.834;2023-04-24T07:41:18;1.80;;;1.10;;
2546;SDS011;1283;47.982;7.834;2023-04-24T07:43:45;2.00;;;1.20;;
2546;SDS011;1283;47.982;7.834;2023-04-24T07:46:11;1.85;;;1.10;;
2546;SDS011;1283;47.982;7.834;2023-04-24T07:48:38;2.00;;;1.00;;
2546;SDS011;1283;47.982;7.834;2023-04-24T07:51:04;2.35;;;1.30;;
2546;SDS011;1283;47.982;7.834;2023-04-24T07:53:31;3.97;;;1.50;;
2546;SDS011;1283;47.982;7.834;2023-04-24T07:55:57;8.43;;;1.85;;
2546;SDS011;1283;47.982;7.834;2023-04-24T07:58:25;3.30;;;1.60;;
2546;SDS011;1283;47.982;7.834;2023-04-24T08:00:51;3.63;;;1.52;;
2546;SDS011;1283;47.982;7.834;2023-04-24T08:03:18;7.25;;;1.30;;
2546;SDS011;1283;47.982;7.834;2023-04-24T08:05:45;4.07;;;1.63;;
2546;SDS011;1283;47.982;7.834;2023-04-24T08:08:11;5.72;;;1.60;;
2546;SDS011;1283;47.982;7.834;2023-04-24T08:10:38;4.63;;;2.13;;
2546;SDS011;1283;47.982;7.834;2023-04-24T08:13:04;3.10;;;2.08;;
2546;SDS011;1283;47.982;7.834;2023-04-24T08:15:32;3.92;;;2.13;;
2546;SDS011;1283;47.982;7.834;2023-04-24T08:17:59;4.25;;;1.80;;
2546;SDS011;1283;47.982;7.834;2023-04-24T08:20:25;5.85;;;2.00;;
2546;SDS011;1283;47.982;7.834;2023-04-24T08:22:52;5.50;;;1.90;;
2546;SDS011;1283;47.982;7.834;2023-04-24T08:25:19;5.43;;;2.35;;
2546;SDS011;1283;47.982;7.834;2023-04-24T08:27:48;3.28;;;1.80;;
2546;SDS011;1283;47.982;7.834;2023-04-24T08:30:14;6.63;;;2.17;;
2546;SDS011;1283;47.982;7.834;2023-04-24T08:32:42;4.93;;;2.22;;
2546;SDS011;1283;47.982;7.834;2023-04-24T08:35:08;5.47;;;2.50;;
2546;SDS011;1283;47.982;7.834;2023-04-24T08:37:35;3.20;;;1.90;;
2546;SDS011;1283;47.982;7.834;2023-04-24T08:40:02;4.60;;;1.80;;
2546;SDS011;1283;47.982;7.834;2023-04-24T08:42:33;3.25;;;1.30;;
2546;SDS011;1283;47.982;7.834;2023-04-24T08:45:00;2.80;;;1.30;;
2546;SDS011;1283;47.982;7.834;2023-04-24T08:47:27;3.53;;;1.50;;
2546;SDS011;1283;47.982;7.834;2023-04-24T08:49:56;3.65;;;1.50;;
2546;SDS011;1283;47.982;7.834;2023-04-24T08:52:24;3.65;;;1.73;;
2546;SDS011;1283;47.982;7.834;2023-04-24T08:54:53;4.20;;;1.50;;
2546;SDS011;1283;47.982;7.834;2023-04-24T08:57:20;3.40;;;1.50;;
2546;SDS011;1283;47.982;7.834;2023-04-24T08:59:46;3.97;;;1.60;;
2546;SDS011;1283;47.982;7.834;2023-04-24T09:02:13;2.85;;;1.55;;
2546;SDS011;1283;47.982;7.834;2023-04-24T09:04:40;4.40;;;1.98;;
2546;SDS011;1283;47.982;7.834;2023-04-24T09:07:08;4.20;;;1.60;;
2546;SDS011;1283;47.982;7.834;2023-04-24T09:09:36;2.95;;;1.65;;
2546;SDS011;1283;47.982;7.834;2023-04-24T09:12:04;5.93;;;1.67;;
2546;SDS011;1283;47.982;7.834;2023-04-24T09:14:31;5.72;;;1.40;;
2546;SDS011;1283;47.982;7.834;2023-04-24T09:16:58;1.85;;;1.35;;
2546;SDS011;1283;47.982;7.834;2023-04-24T09:19:25;3.15;;;1.25;;
2546;SDS011;1283;47.982;7.834;2023-04-24T09:21:51;1.63;;;1.30;;
2546;SDS011;1283;47.982;7.834;2023-04-24T09:24:20;2.95;;;1.15;;
2546;SDS011;1283;47.982;7.834;2023-04-24T09:26:48;4.95;;;1.33;;
2546;SDS011;1283;47.982;7.834;2023-04-24T09:29:15;2.50;;;1.20;;
2546;SDS011;1283;47.982;7.834;2023-04-24T09:31:42;7.47;;;1.38;;
2546;SDS011;1283;47.982;7.834;2023-04-24T09:34:09;3.33;;;1.40;;
2546;SDS011;1283;47.982;7.834;2023-04-24T09:36:36;4.63;;;1.42;;
2546;SDS011;1283;47.982;7.834;2023-04-24T09:39:04;2.80;;;1.00;;
2546;SDS011;1283;47.982;7.834;2023-04-24T09:41:34;6.53;;;1.40;;
2546;SDS011;1283;47.982;7.834;2023-04-24T09:44:10;3.58;;;1.10;;
2546;SDS011;1283;47.982;7.834;2023-04-24T09:46:38;5.10;;;1.50;;
2546;SDS011;1283;47.982;7.834;2023-04-24T09:49:07;2.40;;;1.15;;
2546;SDS011;1283;47.982;7.834;2023-04-24T09:51:36;4.25;;;1.38;;
2546;SDS011;1283;47.982;7.834;2023-04-24T09:54:03;7.82;;;1.27;;
2546;SDS011;1283;47.982;7.834;2023-04-24T09:56:32;4.72;;;0.98;;
2546;SDS011;1283;47.982;7.834;2023-04-24T10:02:22;1.35;;;0.90;;
2546;SDS011;1283;47.982;7.834;2023-04-24T10:04:53;2.97;;;1.27;;
2546;SDS011;1283;47.982;7.834;2023-04-24T10:07:20;2.55;;;0.90;;
2546;SDS011;1283;47.982;7.834;2023-04-24T10:09:46;0.63;;;0.50;;
2546;SDS011;1283;47.982;7.834;2023-04-24T10:12:13;3.17;;;0.98;;
2546;SDS011;1283;47.982;7.834;2023-04-24T10:14:41;1.50;;;0.90;;
2546;SDS011;1283;47.982;7.834;2023-04-24T10:17:07;3.55;;;1.00;;
2546;SDS011;1283;47.982;7.834;2023-04-24T10:19:35;5.75;;;0.70;;
2546;SDS011;1283;47.982;7.834;2023-04-24T10:22:01;3.00;;;0.98;;
2546;SDS011;1283;47.982;7.834;2023-04-24T10:24:28;2.15;;;0.90;;
2546;SDS011;1283;47.982;7.834;2023-04-24T10:26:55;5.00;;;1.10;;
2546;SDS011;1283;47.982;7.834;2023-04-24T10:29:23;2.60;;;1.00;;
2546;SDS011;1283;47.982;7.834;2023-04-24T10:31:49;1.50;;;0.70;;
2546;SDS011;1283;47.982;7.834;2023-04-24T10:34:16;1.45;;;0.80;;
2546;SDS011;1283;47.982;7.834;2023-04-24T10:36:46;3.53;;;0.88;;
2546;SDS011;1283;47.982;7.834;2023-04-24T10:39:15;6.05;;;0.90;;
2546;SDS011;1283;47.982;7.834;2023-04-24T10:41:42;2.00;;;0.90;;
2546;SDS011;1283;47.982;7.834;2023-04-24T10:44:10;3.90;;;0.90;;
2546;SDS011;1283;47.982;7.834;2023-04-24T10:46:38;6.50;;;1.13;;
2546;SDS011;1283;47.982;7.834;2023-04-24T10:49:06;2.35;;;1.10;;
2546;SDS011;1283;47.982;7.834;2023-04-24T10:51:44;2.10;;;0.73;;
2546;SDS011;1283;47.982;7.834;2023-04-24T10:54:23;3.72;;;1.05;;
2546;SDS011;1283;47.982;7.834;2023-04-24T10:56:50;4.57;;;1.10;;
2546;SDS011;1283;47.982;7.834;2023-04-24T10:59:23;6.22;;;1.10;;
2546;SDS011;1283;47.982;7.834;2023-04-24T11:01:52;2.85;;;1.15;;
2546;SDS011;1283;47.982;7.834;2023-04-24T11:04:28;3.60;;;1.20;;
2546;SDS011;1283;47.982;7.834;2023-04-24T11:06:56;1.67;;;0.93;;
2546;SDS011;1283;47.982;7.834;2023-04-24T11:09:24;2.30;;;0.90;;
2546;SDS011;1283;47.982;7.834;2023-04-24T11:11:53;2.05;;;1.10;;
2546;SDS011;1283;47.982;7.834;2023-04-24T11:14:29;5.00;;;1.20;;
2546;SDS011;1283;47.982;7.834;2023-04-24T11:16:56;2.78;;;1.40;;
2546;SDS011;1283;47.982;7.834;2023-04-24T11:19:23;3.33;;;1.20;;
2546;SDS011;1283;47.982;7.834;2023-04-24T11:21:54;2.00;;;1.00;;
2546;SDS011;1283;47.982;7.834;2023-04-24T11:24:25;6.40;;;1.20;;
2546;SDS011;1283;47.982;7.834;2023-04-24T11:26:56;5.88;;;1.33;;
2546;SDS011;1283;47.982;7.834;2023-04-24T11:29:37;5.38;;;1.30;;
2546;SDS011;1283;47.982;7.834;2023-04-24T11:32:14;5.28;;;1.20;;
2546;SDS011;1283;47.982;7.834;2023-04-24T11:34:44;1.65;;;1.00;;
2546;SDS011;1283;47.982;7.834;2023-04-24T11:37:13;3.42;;;1.55;;
2546;SDS011;1283;47.982;7.834;2023-04-24T11:39:40;3.78;;;1.63;;
2546;SDS011;1283;47.982;7.834;2023-04-24T11:42:06;5.20;;;1.63;;
2546;SDS011;1283;47.982;7.834;2023-04-24T11:44:33;3.97;;;1.00;;
2546;SDS011;1283;47.982;7.834;2023-04-24T11:47:00;2.92;;;1.35;;
2546;SDS011;1283;47.982;7.834;2023-04-24T11:49:26;5.95;;;1.20;;
2546;SDS011;1283;47.982;7.834;2023-04-24T11:51:54;1.85;;;1.17;;
2546;SDS011;1283;47.982;7.834;2023-04-24T11:54:22;3.40;;;1.40;;
2546;SDS011;1283;47.982;7.834;2023-04-24T11:56:49;1.60;;;0.85;;
2546;SDS011;1283;47.982;7.834;2023-04-24T11:59:15;3.83;;;1.40;;
2546;SDS011;1283;47.982;7.834;2023-04-24T12:01:42;2.13;;;1.30;;
2546;SDS011;1283;47.982;7.834;2023-04-24T12:04:10;4.43;;;1.30;;
2546;SDS011;1283;47.982;7.834;2023-04-24T12:06:36;6.63;;;1.25;;
2546;SDS011;1283;47.982;7.834;2023-04-24T12:09:03;2.90;;;1.30;;
2546;SDS011;1283;47.982;7.834;2023-04-24T12:11:31;1.67;;;1.05;;
2546;SDS011;1283;47.982;7.834;2023-04-24T12:14:09;8.93;;;1.23;;
2546;SDS011;1283;47.982;7.834;2023-04-24T12:16:36;7.20;;;1.63;;
2546;SDS011;1283;47.982;7.834;2023-04-24T12:19:03;0.85;;;0.80;;
2546;SDS011;1283;47.982;7.834;2023-04-24T12:21:31;2.80;;;1.38;;
2546;SDS011;1283;47.982;7.834;2023-04-24T12:23:57;2.92;;;1.20;;
2546;SDS011;1283;47.982;7.834;2023-04-24T12:26:24;2.67;;;1.40;;
2546;SDS011;1283;47.982;7.834;2023-04-24T12:28:52;3.55;;;1.65;;
2546;SDS011;1283;47.982;7.834;2023-04-24T12:31:20;3.45;;;1.42;;
2546;SDS011;1283;47.982;7.834;2023-04-24T12:33:46;4.32;;;1.30;;
2546;SDS011;1283;47.982;7.834;2023-04-24T12:36:13;4.40;;;1.23;;
2546;SDS011;1283;47.982;7.834;2023-04-24T12:38:39;2.90;;;1.30;;
2546;SDS011;1283;47.982;7.834;2023-04-24T12:41:12;2.60;;;1.50;;
2546;SDS011;1283;47.982;7.834;2023-04-24T12:43:40;2.90;;;1.30;;
2546;SDS011;1283;47.982;7.834;2023-04-24T12:46:18;1.55;;;0.93;;
2546;SDS011;1283;47.982;7.834;2023-04-24T12:48:45;3.67;;;1.10;;
2546;SDS011;1283;47.982;7.834;2023-04-24T12:51:11;2.08;;;1.05;;
2546;SDS011;1283;47.982;7.834;2023-04-24T12:53:38;5.82;;;1.13;;
2546;SDS011;1283;47.982;7.834;2023-04-24T12:56:04;4.60;;;1.10;;
2546;SDS011;1283;47.982;7.834;2023-04-24T12:58:31;2.65;;;1.23;;
2546;SDS011;1283;47.982;7.834;2023-04-24T13:00:58;3.72;;;1.40;;
2546;SDS011;1283;47.982;7.834;2023-04-24T13:03:25;5.40;;;1.50;;
2546;SDS011;1283;47.982;7.834;2023-04-24T13:05:52;4.82;;;1.40;;
2546;SDS011;1283;47.982;7.834;2023-04-24T13:08:18;3.95;;;1.60;;
2546;SDS011;1283;47.982;7.834;2023-04-24T13:10:45;5.00;;;1.25;;
2546;SDS011;1283;47.982;7.834;2023-04-24T13:13:12;3.30;;;1.40;;
2546;SDS011;1283;47.982;7.834;2023-04-24T13:15:38;3.17;;;1.10;;
2546;SDS011;1283;47.982;7.834;2023-04-24T13:18:06;2.30;;;1.15;;
2546;SDS011;1283;47.982;7.834;2023-04-24T13:20:32;2.80;;;1.17;;
2546;SDS011;1283;47.982;7.834;2023-04-24T13:23:00;2.78;;;1.25;;
2546;SDS011;1283;47.982;7.834;2023-04-24T13:25:26;3.53;;;1.60;;
2546;SDS011;1283;47.982;7.834;2023-04-24T13:27:53;2.42;;;1.02;;
2546;SDS011;1283;47.982;7.834;2023-04-24T13:30:20;4.78;;;1.55;;
2546;SDS011;1283;47.982;7.834;2023-04-24T13:32:46;2.85;;;1.52;;
2546;SDS011;1283;47.982;7.834;2023-04-24T13:35:14;2.53;;;1.65;;
2546;SDS011;1283;47.982;7.834;2023-04-24T13:37:40;3.80;;;1.75;;
2546;SDS011;1283;47.982;7.834;2023-04-24T13:40:07;4.97;;;1.33;;
2546;SDS011;1283;47.982;7.834;2023-04-24T13:42:34;2.72;;;1.40;;
2546;SDS011;1283;47.982;7.834;2023-04-24T13:45:01;4.70;;;1.35;;
2546;SDS011;1283;47.982;7.834;2023-04-24T13:47:28;21.60;;;2.45;;
2546;SDS011;1283;47.982;7.834;2023-04-24T13:49:55;1.92;;;1.50;;
2546;SDS011;1283;47.982;7.834;2023-04-24T13:52:22;6.72;;;1.70;;
2546;SDS011;1283;47.982;7.834;2023-04-24T13:54:49;3.58;;;1.30;;
2546;SDS011;1283;47.982;7.834;2023-04-24T13:57:15;5.32;;;1.45;;
2546;SDS011;1283;47.982;7.834;2023-04-24T13:59:42;6.15;;;1.50;;
2546;SDS011;1283;47.982;7.834;2023-04-24T14:02:10;3.05;;;1.48;;
2546;SDS011;1283;47.982;7.834;2023-04-24T14:04:36;4.40;;;1.80;;
2546;SDS011;1283;47.982;7.834;2023-04-24T14:07:03;5.43;;;1.40;;
2546;SDS011;1283;47.982;7.834;2023-04-24T14:09:30;8.13;;;1.38;;
2546;SDS011;1283;47.982;7.834;2023-04-24T14:11:57;7.35;;;1.83;;
2546;SDS011;1283;47.982;7.834;2023-04-24T14:14:23;1.90;;;1.30;;
2546;SDS011;1283;47.982;7.834;2023-04-24T14:16:50;1.75;;;1.42;;
2546;SDS011;1283;47.982;7.834;2023-04-24T14:19:17;2.47;;;1.48;;
2546;SDS011;1283;47.982;7.834;2023-04-24T14:21:43;4.60;;;1.20;;
2546;SDS011;1283;47.982;7.834;2023-04-24T14:24:09;5.68;;;1.50;;
2546;SDS011;1283;47.982;7.834;2023-04-24T14:26:37;2.83;;;1.15;;
2546;SDS011;1283;47.982;7.834;2023-04-24T14:29:04;2.55;;;1.25;;
2546;SDS011;1283;47.982;7.834;2023-04-24T14:31:30;2.67;;;1.15;;
2546;SDS011;1283;47.982;7.834;2023-04-24T14:33:57;2.58;;;1.20;;
2546;SDS011;1283;47.982;7.834;2023-04-24T14:36:23;2.40;;;1.48;;
2546;SDS011;1283;47.982;7.834;2023-04-24T14:38:50;2.60;;;1.67;;
2546;SDS011;1283;47.982;7.834;2023-04-24T14:41:16;2.55;;;1.58;;
2546;SDS011;1283;47.982;7.834;2023-04-24T14:43:44;4.38;;;1.70;;
2546;SDS011;1283;47.982;7.834;2023-04-24T14:46:10;8.25;;;2.10;;
2546;SDS011;1283;47.982;7.834;2023-04-24T14:48:37;2.55;;;1.50;;
2546;SDS011;1283;47.982;7.834;2023-04-24T14:51:03;5.43;;;1.50;;
2546;SDS011;1283;47.982;7.834;2023-04-24T14:53:30;1.85;;;1.48;;
2546;SDS011;1283;47.982;7.834;2023-04-24T14:55:56;4.07;;;1.73;;
2546;SDS011;1283;47.982;7.834;2023-04-24T14:58:23;4.88;;;1.73;;
2546;SDS011;1283;47.982;7.834;2023-04-24T15:00:50;2.30;;;1.63;;
2546;SDS011;1283;47.982;7.834;2023-04-24T15:03:19;3.15;;;1.70;;
2546;SDS011;1283;47.982;7.834;2023-04-24T15:05:46;2.00;;;1.40;;
2546;SDS011;1283;47.982;7.834;2023-04-24T15:08:13;6.15;;;1.80;;
2546;SDS011;1283;47.982;7.834;2023-04-24T15:10:40;3.22;;;1.58;;
2546;SDS011;1283;47.982;7.834;2023-04-24T15:13:06;4.10;;;1.70;;
2546;SDS011;1283;47.982;7.834;2023-04-24T15:15:33;2.83;;;1.77;;
2546;SDS011;1283;47.982;7.834;2023-04-24T15:18:01;4.90;;;2.22;;